createdAt,value
2019-01-16T00:01:27.193Z,8.33
2019-01-16T00:04:16.316Z,5.43
2019-01-16T00:07:20.897Z,9.20
2019-01-16T00:10:08.074Z,6.97
2019-01-16T00:12:56.070Z,10.67
2019-01-16T00:15:39.579Z,6.47
2019-01-16T00:18:47.025Z,9.63
2019-01-16T00:21:34.613Z,8.70
2019-01-16T00:24:17.747Z,8.33
2019-01-16T00:27:12.720Z,6.60
2019-01-16T00:30:01.270Z,8.90
2019-01-16T00:32:49.144Z,10.50
2019-01-16T00:35:37.237Z,7.00
2019-01-16T00:38:41.531Z,9.27
2019-01-16T00:41:42.820Z,8.30
2019-01-16T00:44:35.459Z,8.57
2019-01-16T00:47:19.981Z,9.57
2019-01-16T00:50:18.837Z,8.80
2019-01-16T00:53:17.075Z,5.13
2019-01-16T00:56:04.779Z,9.77
2019-01-16T00:58:58.963Z,11.10
2019-01-16T01:01:44.713Z,9.30
2019-01-16T01:04:43.025Z,7.73
2019-01-16T01:07:22.858Z,8.40
2019-01-16T01:10:26.950Z,9.17
2019-01-16T01:13:14.909Z,9.80
2019-01-16T01:16:00.059Z,6.23
2019-01-16T01:19:07.267Z,6.57
2019-01-16T01:21:54.948Z,9.53
2019-01-16T01:24:50.269Z,8.43
2019-01-16T01:27:54.349Z,4.23
2019-01-16T01:30:32.473Z,7.67
2019-01-16T01:33:27.549Z,6.20
2019-01-16T01:36:19.560Z,7.90
2019-01-16T01:39:08.731Z,8.17
2019-01-16T01:41:58.047Z,8.13
2019-01-16T01:44:53.327Z,7.20
2019-01-16T01:47:41.430Z,9.23
2019-01-16T01:50:45.419Z,7.50
2019-01-16T01:53:33.255Z,7.60
2019-01-16T01:56:21.295Z,6.90
2019-01-16T01:59:02.518Z,6.17
2019-01-16T02:01:54.668Z,7.87
2019-01-16T02:04:42.495Z,6.43
2019-01-16T02:07:30.091Z,5.13
2019-01-16T02:10:17.868Z,7.57
2019-01-16T02:13:05.842Z,7.17
2019-01-16T02:16:02.043Z,5.50
2019-01-16T02:18:47.465Z,7.43
2019-01-16T02:21:29.802Z,6.00
2019-01-16T02:24:28.077Z,6.57
2019-01-16T02:30:19.229Z,6.53
2019-01-16T02:33:08.173Z,6.70
2019-01-16T02:35:55.678Z,8.43
2019-01-16T02:38:33.292Z,7.70
2019-01-16T02:41:28.197Z,6.37
2019-01-16T02:44:30.665Z,7.40
2019-01-16T02:47:25.782Z,6.50
2019-01-16T02:50:10.248Z,7.77
2019-01-16T02:53:17.731Z,5.07
2019-01-16T02:56:09.414Z,6.63
2019-01-16T02:58:46.826Z,7.83
2019-01-16T03:01:44.707Z,7.53
2019-01-16T03:04:31.955Z,6.90
2019-01-16T03:07:19.663Z,6.83
2019-01-16T03:10:07.360Z,6.97
2019-01-16T03:13:02.314Z,5.40
2019-01-16T03:15:49.769Z,7.43
2019-01-16T03:18:39.421Z,6.53
2019-01-16T03:21:26.931Z,6.37
2019-01-16T03:24:17.618Z,7.20
2019-01-16T03:27:09.675Z,9.17
2019-01-16T03:29:57.343Z,10.43
2019-01-16T03:32:41.371Z,9.43
2019-01-16T03:35:21.287Z,8.37
2019-01-16T03:38:25.147Z,9.77
2019-01-16T03:41:04.366Z,8.33
2019-01-16T03:43:49.930Z,4.87
2019-01-16T03:46:42.062Z,8.57
2019-01-16T03:49:22.441Z,7.57
2019-01-16T03:52:11.076Z,7.87
2019-01-16T03:54:59.616Z,8.23
2019-01-16T03:57:38.153Z,7.27
2019-01-16T04:00:26.158Z,5.47
2019-01-16T04:03:21.057Z,7.23
2019-01-16T04:06:10.016Z,8.60
2019-01-16T04:08:58.690Z,6.97
2019-01-16T04:11:50.354Z,4.67
2019-01-16T04:14:31.324Z,7.03
2019-01-16T04:17:18.418Z,6.87
2019-01-16T04:19:56.116Z,7.13
2019-01-16T04:22:41.924Z,6.10
2019-01-16T04:25:30.454Z,6.73
2019-01-16T04:28:27.422Z,7.60
2019-01-16T04:31:28.930Z,6.37
2019-01-16T04:34:17.738Z,5.90
2019-01-16T04:37:24.507Z,5.03
2019-01-16T04:40:05.080Z,7.07
2019-01-16T04:42:53.708Z,6.33
2019-01-16T04:45:41.295Z,7.30
2019-01-16T04:48:28.963Z,6.17
2019-01-16T04:51:12.223Z,5.80
2019-01-16T04:54:16.225Z,5.70
2019-01-16T04:57:04.860Z,4.80
2019-01-16T05:00:05.888Z,6.77
2019-01-16T05:02:45.679Z,7.23
2019-01-16T05:05:29.634Z,7.63
2019-01-16T05:08:22.052Z,6.70
2019-01-16T05:11:13.506Z,7.23
2019-01-16T05:14:03.094Z,9.13
2019-01-16T05:16:59.598Z,7.53
2019-01-16T05:19:40.990Z,6.90
2019-01-16T05:22:29.630Z,7.27
2019-01-16T05:25:08.480Z,7.37
2019-01-16T05:28:12.248Z,7.00
2019-01-16T05:30:52.062Z,6.80
2019-01-16T05:33:28.899Z,6.23
2019-01-16T05:36:16.218Z,5.20
2019-01-16T05:39:00.273Z,9.27
2019-01-16T05:41:48.043Z,8.00
2019-01-16T05:44:42.883Z,8.30
2019-01-16T05:47:47.183Z,8.97
2019-01-16T05:50:31.573Z,8.30
2019-01-16T05:53:27.967Z,9.47
2019-01-16T05:56:34.772Z,11.30
2019-01-16T05:59:32.722Z,9.07
2019-01-16T06:02:27.150Z,14.00
2019-01-16T06:05:03.308Z,10.83
2019-01-16T06:07:39.176Z,11.93
2019-01-16T06:10:32.002Z,21.40
2019-01-16T06:13:26.693Z,11.33
2019-01-16T06:16:27.790Z,10.37
2019-01-16T06:19:25.416Z,9.57
2019-01-16T06:22:13.299Z,10.30
2019-01-16T06:25:07.794Z,11.27
2019-01-16T06:28:12.906Z,10.77
2019-01-16T06:30:53.003Z,9.80
2019-01-16T06:33:44.610Z,9.47
2019-01-16T06:36:28.433Z,8.80
2019-01-16T06:39:07.166Z,12.17
2019-01-16T06:42:14.021Z,7.67
2019-01-16T06:44:56.334Z,10.83
2019-01-16T06:47:48.110Z,9.67
2019-01-16T06:50:32.311Z,9.37
2019-01-16T06:53:29.997Z,10.63
2019-01-16T06:56:17.354Z,9.23
2019-01-16T06:59:04.976Z,13.73
2019-01-16T07:01:56.785Z,11.20
2019-01-16T07:04:48.573Z,9.93
2019-01-16T07:07:36.039Z,8.03
2019-01-16T07:10:18.420Z,9.60
2019-01-16T07:13:11.773Z,10.13
2019-01-16T07:15:59.797Z,7.90
2019-01-16T07:18:57.955Z,9.30
2019-01-16T07:21:46.986Z,10.70
2019-01-16T07:24:38.685Z,11.87
2019-01-16T07:27:18.963Z,10.33
2019-01-16T07:30:07.650Z,10.43
2019-01-16T07:32:56.322Z,6.73
2019-01-16T07:35:44.310Z,8.83
2019-01-16T07:38:31.866Z,13.83
2019-01-16T07:41:29.562Z,12.13
2019-01-16T07:44:21.618Z,12.30
2019-01-16T07:47:10.285Z,8.50
2019-01-16T07:49:58.970Z,9.37
2019-01-16T07:52:54.071Z,9.30
2019-01-16T07:55:48.518Z,11.23
2019-01-16T07:58:38.018Z,7.73
2019-01-16T08:01:45.305Z,10.10
2019-01-16T08:04:34.474Z,8.87
2019-01-16T08:07:22.044Z,9.47
2019-01-16T08:10:22.942Z,11.33
2019-01-16T08:13:12.566Z,11.13
2019-01-16T08:16:01.602Z,9.87
2019-01-16T08:18:50.275Z,10.57
2019-01-16T08:21:37.994Z,10.53
2019-01-16T08:24:18.131Z,8.63
2019-01-16T08:27:06.786Z,11.90
2019-01-16T08:29:54.827Z,6.63
2019-01-16T08:32:35.803Z,9.27
2019-01-16T08:35:31.447Z,7.93
2019-01-16T08:38:23.569Z,10.33
2019-01-16T08:41:12.191Z,10.17
2019-01-16T08:43:53.979Z,6.73
2019-01-16T08:46:41.418Z,9.50
2019-01-16T08:49:28.980Z,10.87
2019-01-16T08:52:17.774Z,11.00
2019-01-16T08:55:06.478Z,11.23
2019-01-16T08:57:55.076Z,10.43
2019-01-16T09:00:46.240Z,12.10
2019-01-16T09:03:28.677Z,6.70
2019-01-16T09:06:11.659Z,10.83
2019-01-16T09:09:15.691Z,9.73
2019-01-16T09:12:04.738Z,9.93
2019-01-16T09:14:56.473Z,7.37
2019-01-16T09:17:37.551Z,9.20
2019-01-16T09:20:43.138Z,9.33
2019-01-16T09:23:44.166Z,11.60
2019-01-16T09:26:25.758Z,15.03
2019-01-16T09:29:14.631Z,8.23
2019-01-16T09:31:59.050Z,6.53
2019-01-16T09:34:42.708Z,8.07
2019-01-16T09:37:29.998Z,8.10
2019-01-16T09:40:28.978Z,9.70
2019-01-16T09:43:17.928Z,10.63
2019-01-16T09:46:16.138Z,7.13
2019-01-16T09:49:11.114Z,9.00
2019-01-16T09:51:56.003Z,9.17
2019-01-16T09:54:43.998Z,6.93
2019-01-16T09:57:31.909Z,13.03
2019-01-16T10:00:25.370Z,10.13
2019-01-16T10:03:13.313Z,8.50
2019-01-16T10:05:57.774Z,9.40
2019-01-16T10:08:36.567Z,6.97
2019-01-16T10:11:31.944Z,10.07
2019-01-16T10:14:19.834Z,8.43
2019-01-16T10:17:05.675Z,12.53
2019-01-16T10:20:00.274Z,7.57
2019-01-16T10:22:49.937Z,8.30
2019-01-16T10:25:46.025Z,8.57
2019-01-16T10:28:25.155Z,8.27
2019-01-16T10:31:24.295Z,10.63
2019-01-16T10:34:11.192Z,9.00
2019-01-16T10:36:58.749Z,8.27
2019-01-16T10:39:45.542Z,4.23
2019-01-16T10:42:27.334Z,8.53
2019-01-16T10:45:06.451Z,5.57
2019-01-16T10:47:49.463Z,9.57
2019-01-16T10:50:41.652Z,8.93
2019-01-16T10:53:39.249Z,9.70
2019-01-16T10:56:21.677Z,9.63
2019-01-16T10:59:02.140Z,5.77
2019-01-16T11:01:43.215Z,10.37
2019-01-16T11:04:29.195Z,5.83
2019-01-16T11:07:17.847Z,11.77
2019-01-16T11:10:07.462Z,8.30
2019-01-16T11:12:58.935Z,6.63
2019-01-16T11:15:39.407Z,7.40
2019-01-16T11:18:37.215Z,4.47
2019-01-16T11:21:30.643Z,7.47
2019-01-16T11:24:10.035Z,5.77
2019-01-16T11:26:51.779Z,9.20
2019-01-16T11:29:40.434Z,5.63
2019-01-16T11:32:37.487Z,9.20
2019-01-16T11:35:32.855Z,7.00
2019-01-16T11:38:17.495Z,7.20
2019-01-16T11:41:00.334Z,7.03
2019-01-16T11:43:54.853Z,10.00
2019-01-16T11:46:40.118Z,6.43
2019-01-16T11:49:28.922Z,8.57
2019-01-16T11:52:16.842Z,6.83
2019-01-16T11:55:00.907Z,11.60
2019-01-16T11:57:48.203Z,6.77
2019-01-16T12:00:52.071Z,10.67
2019-01-16T12:03:43.550Z,13.87
2019-01-16T12:06:31.279Z,12.50
2019-01-16T12:09:13.060Z,8.00
2019-01-16T12:12:00.460Z,9.37
2019-01-16T12:14:43.528Z,11.13
2019-01-16T12:17:30.937Z,7.67
2019-01-16T12:20:27.046Z,14.50
2019-01-16T12:23:09.807Z,9.73
2019-01-16T12:25:58.507Z,11.23
2019-01-16T12:28:38.821Z,9.87
2019-01-16T12:31:27.547Z,14.27
2019-01-16T12:34:10.197Z,9.70
2019-01-16T12:37:08.174Z,14.03
2019-01-16T12:39:59.988Z,10.90
2019-01-16T12:42:38.397Z,13.00
2019-01-16T12:45:22.658Z,15.20
2019-01-16T12:48:03.922Z,18.37
2019-01-16T12:50:49.311Z,12.80
2019-01-16T12:53:35.748Z,9.87
2019-01-16T12:56:23.417Z,15.10
2019-01-16T12:59:18.106Z,11.80
2019-01-16T13:01:55.753Z,21.73
2019-01-16T13:04:39.974Z,15.20
2019-01-16T13:07:39.294Z,17.87
2019-01-16T13:10:28.378Z,23.43
2019-01-16T13:13:16.102Z,13.13
2019-01-16T13:16:03.621Z,24.17
2019-01-16T13:18:51.274Z,10.30
2019-01-16T13:21:40.092Z,17.10
2019-01-16T13:24:41.766Z,10.57
2019-01-16T13:27:29.199Z,10.70
2019-01-16T13:30:16.462Z,7.43
2019-01-16T13:32:56.706Z,8.60
2019-01-16T13:36:00.803Z,9.03
2019-01-16T13:38:48.383Z,12.00
2019-01-16T13:41:40.018Z,5.83
2019-01-16T13:44:28.695Z,7.73
2019-01-16T13:47:15.423Z,9.20
2019-01-16T13:50:22.486Z,5.37
2019-01-16T13:53:10.843Z,8.67
2019-01-16T13:55:53.445Z,7.47
2019-01-16T13:58:44.969Z,9.03
2019-01-16T14:01:33.603Z,6.93
2019-01-16T14:04:16.685Z,7.00
2019-01-16T14:07:08.129Z,7.10
2019-01-16T14:09:49.246Z,7.30
2019-01-16T14:12:37.638Z,6.93
2019-01-16T14:15:27.094Z,9.40
2019-01-16T14:18:18.191Z,8.53
2019-01-16T14:21:19.121Z,8.50
2019-01-16T14:24:08.246Z,11.53
2019-01-16T14:26:55.999Z,6.30
2019-01-16T14:29:42.230Z,10.87
2019-01-16T14:32:25.779Z,11.47
2019-01-16T14:35:13.058Z,9.93
2019-01-16T14:38:14.118Z,9.53
2019-01-16T14:40:59.106Z,8.23
2019-01-16T14:43:54.152Z,9.23
2019-01-16T14:46:41.849Z,4.60
2019-01-16T14:49:30.560Z,9.47
2019-01-16T14:52:18.535Z,10.23
2019-01-16T14:55:06.588Z,10.10
2019-01-16T14:58:02.499Z,8.90
2019-01-16T15:01:03.053Z,5.47
2019-01-16T15:03:47.806Z,9.43
2019-01-16T15:06:43.032Z,11.93
2019-01-16T15:09:30.442Z,8.00
2019-01-16T15:12:24.411Z,8.33
2019-01-16T15:15:07.751Z,9.93
2019-01-16T15:17:55.705Z,8.00
2019-01-16T15:20:45.868Z,9.27
2019-01-16T15:23:40.987Z,12.57
2019-01-16T15:26:45.089Z,7.43
2019-01-16T15:29:33.800Z,10.63
2019-01-16T15:32:25.415Z,9.57
2019-01-16T15:35:14.139Z,7.97
2019-01-16T15:38:01.652Z,9.87
2019-01-16T15:40:45.638Z,8.70
2019-01-16T15:43:27.227Z,7.50
2019-01-16T15:46:11.887Z,8.17
2019-01-16T15:48:52.946Z,7.53
2019-01-16T15:51:47.897Z,8.97
2019-01-16T15:54:51.639Z,6.73
2019-01-16T15:57:52.684Z,8.13
2019-01-16T16:00:41.730Z,10.73
2019-01-16T16:03:33.482Z,7.97
2019-01-16T16:06:22.373Z,12.20
2019-01-16T16:09:11.037Z,11.97
2019-01-16T16:11:57.023Z,11.93
2019-01-16T16:14:44.901Z,9.50
2019-01-16T16:17:40.950Z,10.13
2019-01-16T16:20:36.886Z,10.63
2019-01-16T16:23:24.525Z,13.57
2019-01-16T16:26:13.593Z,10.37
2019-01-16T16:28:53.622Z,10.00
2019-01-16T16:31:35.317Z,16.33
2019-01-16T16:34:23.812Z,6.67
2019-01-16T16:37:11.809Z,10.83
2019-01-16T16:40:19.002Z,11.47
2019-01-16T16:43:04.197Z,10.40
2019-01-16T16:45:52.936Z,8.13
2019-01-16T16:48:41.583Z,11.80
2019-01-16T16:51:36.224Z,15.23
2019-01-16T16:54:30.684Z,17.00
2019-01-16T16:57:24.442Z,16.23
2019-01-16T17:00:22.742Z,15.17
2019-01-16T17:03:10.438Z,14.30
2019-01-16T17:06:00.856Z,15.53
2019-01-16T17:08:50.050Z,14.60
2019-01-16T17:11:48.078Z,11.87
2019-01-16T17:14:36.070Z,11.40
2019-01-16T17:17:25.917Z,13.50
2019-01-16T17:20:15.357Z,12.80
2019-01-16T17:22:57.384Z,11.70
2019-01-16T17:25:53.915Z,11.60
2019-01-16T17:28:42.576Z,12.37
2019-01-16T17:31:30.405Z,12.43
2019-01-16T17:34:29.157Z,10.93
2019-01-16T17:37:21.661Z,10.50
2019-01-16T17:40:07.722Z,11.00
2019-01-16T17:43:02.856Z,9.70
2019-01-16T17:45:51.881Z,9.73
2019-01-16T17:48:40.016Z,13.70
2019-01-16T17:51:30.082Z,11.20
2019-01-16T17:54:34.494Z,12.10
2019-01-16T17:57:26.912Z,13.90
2019-01-16T18:00:24.833Z,11.93
2019-01-16T18:03:32.391Z,10.37
2019-01-16T18:06:30.052Z,11.33
2019-01-16T18:09:35.248Z,13.33
2019-01-16T18:12:14.973Z,13.90
2019-01-16T18:15:19.239Z,13.83
2019-01-16T18:18:08.294Z,15.33
2019-01-16T18:21:07.161Z,12.47
2019-01-16T18:24:02.330Z,9.90
2019-01-16T18:26:51.360Z,13.83
2019-01-16T18:29:30.174Z,11.60
2019-01-16T18:32:28.511Z,11.43
2019-01-16T18:35:24.280Z,14.10
2019-01-16T18:38:22.467Z,13.00
2019-01-16T18:41:00.658Z,14.23
2019-01-16T18:43:49.953Z,16.03
2019-01-16T18:46:41.697Z,19.23
2019-01-16T18:49:30.489Z,14.30
2019-01-16T18:52:34.760Z,13.37
2019-01-16T18:55:24.110Z,14.00
2019-01-16T18:58:10.966Z,11.73
2019-01-16T19:00:49.637Z,13.23
2019-01-16T19:03:50.957Z,14.13
2019-01-16T19:06:49.394Z,14.57
2019-01-16T19:09:42.861Z,12.50
2019-01-16T19:12:30.495Z,13.87
2019-01-16T19:15:38.320Z,14.63
2019-01-16T19:18:27.835Z,16.33
2019-01-16T19:21:20.051Z,15.87
2019-01-16T19:24:21.220Z,19.57
2019-01-16T19:26:59.948Z,17.43
2019-01-16T19:29:49.084Z,15.57
2019-01-16T19:32:44.158Z,14.87
2019-01-16T19:35:45.102Z,12.33
2019-01-16T19:38:38.949Z,18.73
2019-01-16T19:41:40.166Z,13.60
2019-01-16T19:44:26.170Z,16.00
2019-01-16T19:47:18.257Z,14.60
2019-01-16T19:50:13.433Z,15.37
2019-01-16T19:53:08.495Z,14.53
2019-01-16T19:55:56.155Z,14.53
2019-01-16T19:58:42.092Z,14.70
2019-01-16T20:01:31.325Z,17.03
2019-01-16T20:04:13.557Z,14.97
2019-01-16T20:07:12.377Z,19.03
2019-01-16T20:10:07.560Z,14.83
2019-01-16T20:13:06.006Z,18.90
2019-01-16T20:15:55.225Z,17.47
2019-01-16T20:18:39.168Z,15.80
2019-01-16T20:21:24.238Z,17.13
2019-01-16T20:24:14.208Z,16.43
2019-01-16T20:27:02.258Z,14.90
2019-01-16T20:30:00.795Z,16.53
2019-01-16T20:32:48.598Z,15.07
2019-01-16T20:35:46.598Z,18.57
2019-01-16T20:38:35.895Z,20.37
2019-01-16T20:41:24.909Z,19.93
2019-01-16T20:44:14.204Z,18.23
2019-01-16T20:47:01.933Z,20.40
2019-01-16T20:50:00.253Z,17.07
2019-01-16T20:52:52.197Z,17.40
2019-01-16T20:55:45.688Z,15.87
2019-01-16T20:58:36.235Z,16.43
2019-01-16T21:01:24.177Z,13.40
2019-01-16T21:04:12.450Z,16.70
2019-01-16T21:07:13.486Z,14.30
2019-01-16T21:10:08.467Z,17.67
2019-01-16T21:13:04.803Z,17.40
2019-01-16T21:15:57.620Z,15.50
2019-01-16T21:18:49.545Z,16.00
2019-01-16T21:21:41.717Z,13.90
2019-01-16T21:24:30.818Z,16.83
2019-01-16T21:27:22.159Z,14.40
2019-01-16T21:30:20.161Z,16.00
2019-01-16T21:33:24.472Z,16.37
2019-01-16T21:36:28.281Z,13.23
2019-01-16T21:39:16.168Z,16.40
2019-01-16T21:42:03.863Z,19.73
2019-01-16T21:45:07.802Z,16.73
2019-01-16T21:47:55.760Z,22.90
2019-01-16T21:50:51.760Z,18.07
2019-01-16T21:53:39.286Z,14.14
2019-01-16T21:56:38.307Z,16.07
2019-01-16T21:59:31.145Z,17.87
2019-01-16T22:02:38.397Z,16.37
2019-01-16T22:05:45.701Z,15.43
2019-01-16T22:08:41.127Z,24.70
2019-01-16T22:11:30.165Z,17.20
2019-01-16T22:14:09.041Z,17.47
2019-01-16T22:17:00.177Z,16.13
2019-01-16T22:19:48.030Z,31.93
2019-01-16T22:22:35.999Z,18.50
2019-01-16T22:25:29.443Z,24.73
2019-01-16T22:28:33.229Z,19.83
2019-01-16T22:31:31.935Z,18.53
2019-01-16T22:34:16.212Z,17.43
2019-01-16T22:37:05.737Z,20.37
2019-01-16T22:40:01.967Z,22.20
2019-01-16T22:43:02.454Z,16.17
2019-01-16T22:45:54.214Z,17.47
2019-01-16T22:48:54.043Z,14.03
2019-01-16T22:51:41.835Z,13.63
2019-01-16T22:54:33.596Z,13.90
2019-01-16T22:57:14.750Z,12.10
2019-01-16T23:00:02.319Z,12.63
2019-01-16T23:02:50.247Z,15.47
2019-01-16T23:05:38.096Z,15.13
2019-01-16T23:08:26.020Z,16.60
2019-01-16T23:11:27.781Z,20.40
2019-01-16T23:14:03.738Z,17.97
2019-01-16T23:16:53.197Z,21.30
2019-01-16T23:19:41.026Z,17.00
2019-01-16T23:22:35.824Z,14.77
2019-01-16T23:25:24.968Z,13.43
2019-01-16T23:28:23.688Z,15.63
2019-01-16T23:31:07.479Z,25.10
2019-01-16T23:34:02.529Z,17.63
2019-01-16T23:36:50.036Z,13.40
2019-01-16T23:39:38.243Z,12.73
2019-01-16T23:42:32.989Z,11.57
2019-01-16T23:45:27.745Z,12.40
2019-01-16T23:48:17.094Z,11.13
2019-01-16T23:51:12.247Z,12.60
2019-01-16T23:54:00.320Z,9.77
2019-01-16T23:56:59.717Z,9.90
2019-01-16T23:59:43.779Z,12.07
